This is the latest recevied weather packets stored in our database for station/object SV1BYK-4. If no packets are shown the sender has not sent any weather packets the latest 10 day(s).
| Time | Temp. | Humidity | Pressure | Rain* | Wind** | Luminosity | Snow |
|---|---|---|---|---|---|---|---|
| 1777167197 | 13.89° C | 56% | 1014.2 hPa | 0 mm | - | 0 W/m² | - |
| 1777160176 | 14.44° C | 55% | 1014.2 hPa | 0 mm | - | 0 W/m² | - |
| 1777152076 | 16.11° C | 43% | 1014.6 hPa | 0 mm | - | 0 W/m² | - |
| 1777131556 | 20.56° C | 37% | 1014 hPa | 0 mm | - | 0 W/m² | - |
| 1777131016 | 20° C | 37% | 1014.2 hPa | 0 mm | - | 0 W/m² | - |
| 1777129396 | 20° C | 37% | 1014.3 hPa | 0 mm | - | 0 W/m² | - |
| 1777124536 | 21.11° C | 35% | 1014.8 hPa | 0 mm | - | 0 W/m² | - |
| 1777119136 | 21.11° C | 33% | 1015.4 hPa | 0 mm | - | 0 W/m² | - |
| 1777113196 | 22.78° C | 29% | 1015.7 hPa | 0 mm | - | 0 W/m² | - |
| 1777105636 | 20.56° C | 35% | 1015.9 hPa | 0 mm | - | 0 W/m² | - |
| 1777102936 | 20° C | 34% | 1015.9 hPa | 0 mm | - | 0 W/m² | - |
| 1777100236 | 18.89° C | 35% | 1015.5 hPa | 0 mm | - | 0 W/m² | - |
| 1777098616 | 18.33° C | 35% | 1015.2 hPa | 0 mm | - | 0 W/m² | - |
| 1777091056 | 12.78° C | 50% | 1015.2 hPa | 0 mm | - | 0 W/m² | - |
| 1777089976 | 12.22° C | 51% | 1014.8 hPa | 0 mm | - | 0 W/m² | - |
| 1777088896 | 11.67° C | 51% | 1014.3 hPa | 0 mm | - | 0 W/m² | - |
| 1777086196 | 11.67° C | 52% | 1013.9 hPa | 0 mm | - | 0 W/m² | - |
| 1777082416 | 12.22° C | 50% | 1013.9 hPa | 0 mm | - | 0 W/m² | - |
| 1777080256 | 12.22° C | 50% | 1013.7 hPa | 0 mm | - | 0 W/m² | - |
| 1777079716 | 12.22° C | 50% | 1013.8 hPa | 0 mm | - | 0 W/m² | - |
| 1777078096 | 12.22° C | 50% | 1013.6 hPa | 0 mm | - | 0 W/m² | - |
| 1777077556 | 12.22° C | 49% | 1013.5 hPa | 0 mm | - | 0 W/m² | - |
* Rain latest hour (hover to see other rain measurements)
** Current wind speed in m/s (hover to see current wind gust speed)